Time;durP1;ratioP1;P1;durP2;ratioP2;P2;SDS_P1;SDS_P2;PMS_P1;PMS_P2;Temp;Humidity;BMP_temperature;BMP_pressure;BME280_temperature;BME280_humidity;BME280_pressure;Samples;Min_cycle;Max_cycle;Signal;HPM_P1;HPM_P2
2023/06/20 00:01:14;;;;;;;19.27;14.77;;;23.20;71.80;;;;;;5078038;28;20025;-71
2023/06/20 00:03:40;;;;;;;18.50;13.98;;;23.20;71.90;;;;;;5077974;28;20228;-71
2023/06/20 00:06:06;;;;;;;16.52;13.38;;;23.20;71.90;;;;;;5077606;28;20401;-71
2023/06/20 00:08:32;;;;;;;19.27;15.48;;;23.20;71.90;;;;;;5077668;28;20047;-71
2023/06/20 00:10:58;;;;;;;18.38;14.00;;;23.20;71.90;;;;;;5077502;28;20021;-71
2023/06/20 00:13:24;;;;;;;16.85;13.05;;;23.20;71.80;;;;;;5078060;28;20427;-72
2023/06/20 00:15:50;;;;;;;18.35;14.07;;;23.20;71.80;;;;;;5077959;28;20063;-72
2023/06/20 00:18:17;;;;;;;18.20;14.38;;;23.10;71.80;;;;;;5077953;28;20426;-72
2023/06/20 00:20:46;;;;;;;17.15;14.40;;;23.20;71.80;;;;;;5077331;28;20365;-72
2023/06/20 00:23:11;;;;;;;19.25;14.27;;;23.10;71.70;;;;;;5077680;28;20430;-71
2023/06/20 00:25:37;;;;;;;18.17;14.93;;;23.10;71.70;;;;;;5077628;28;20025;-72
2023/06/20 00:28:03;;;;;;;15.98;13.85;;;23.10;71.70;;;;;;5077271;28;20334;-71
2023/06/20 00:30:29;;;;;;;17.73;14.95;;;23.10;71.60;;;;;;5077166;28;20021;-72
2023/06/20 00:32:58;;;;;;;17.95;14.23;;;23.00;71.70;;;;;;5077524;28;20025;-72
2023/06/20 00:35:25;;;;;;;17.15;13.60;;;23.00;71.70;;;;;;5077696;28;20048;-72
2023/06/20 00:37:52;;;;;;;15.40;13.10;;;23.00;71.80;;;;;;5077043;28;20311;-72
2023/06/20 00:40:18;;;;;;;16.95;13.57;;;23.00;71.80;;;;;;5077179;28;20108;-71
2023/06/20 00:42:45;;;;;;;20.27;14.32;;;22.90;71.80;;;;;;5077550;28;20070;-71
2023/06/20 00:45:28;;;;;;;17.55;14.10;;;22.90;71.80;;;;;;5077716;28;20028;-72
2023/06/20 00:47:57;;;;;;;17.85;14.68;;;22.90;72.00;;;;;;5076851;28;20070;-72
2023/06/20 00:50:26;;;;;;;16.63;13.05;;;22.90;72.00;;;;;;5077059;28;20449;-72
2023/06/20 00:52:59;;;;;;;17.65;14.13;;;22.90;71.90;;;;;;5077414;28;20047;-71
2023/06/20 00:55:31;;;;;;;17.70;14.25;;;22.90;71.90;;;;;;5077365;28;20337;-72
2023/06/20 00:57:58;;;;;;;19.40;14.02;;;22.90;71.90;;;;;;5076612;28;20053;-71
2023/06/20 01:00:26;;;;;;;19.65;15.00;;;22.90;71.90;;;;;;5076769;28;20021;-71
2023/06/20 01:02:55;;;;;;;18.58;14.63;;;22.80;71.90;;;;;;5076926;28;20436;-72
2023/06/20 01:05:26;;;;;;;17.70;14.40;;;22.70;71.90;;;;;;5076847;28;20028;-71
2023/06/20 01:08:05;;;;;;;18.20;14.65;;;22.80;72.00;;;;;;5076459;28;20036;-71
2023/06/20 01:10:44;;;;;;;17.50;14.45;;;22.70;72.10;;;;;;5076948;28;20035;-71
2023/06/20 01:13:43;;;;;;;20.52;15.20;;;22.60;72.20;;;;;;5077006;28;20020;-71
2023/06/20 01:16:29;;;;;;;17.00;14.23;;;22.60;72.40;;;;;;5076560;28;20017;-71
2023/06/20 01:19:01;;;;;;;20.67;15.18;;;22.60;72.30;;;;;;5076885;28;20035;-71
2023/06/20 01:21:36;;;;;;;20.52;14.77;;;22.60;72.40;;;;;;5076249;28;20095;-71
2023/06/20 01:24:13;;;;;;;19.05;15.07;;;22.50;72.40;;;;;;5076373;28;20048;-71
2023/06/20 01:26:57;;;;;;;21.00;15.93;;;22.50;72.30;;;;;;5076404;28;20099;-71
2023/06/20 01:29:36;;;;;;;18.60;14.88;;;22.50;72.50;;;;;;5076660;28;20025;-71
2023/06/20 01:32:09;;;;;;;22.50;17.67;;;22.50;72.40;;;;;;5076301;28;20166;-71
2023/06/20 01:34:48;;;;;;;19.50;16.23;;;22.40;72.70;;;;;;5075987;28;20025;-71
2023/06/20 01:37:17;;;;;;;16.73;13.23;;;22.40;72.70;;;;;;5075865;28;20418;-71
2023/06/20 01:39:50;;;;;;;16.65;13.63;;;22.30;72.60;;;;;;5075862;28;20044;-71
2023/06/20 01:42:19;;;;;;;17.52;13.80;;;22.20;72.60;;;;;;5076162;28;20093;-71
2023/06/20 01:44:46;;;;;;;18.13;13.75;;;22.20;72.70;;;;;;5058094;28;20441;-71
2023/06/20 01:47:16;;;;;;;16.63;12.90;;;22.20;72.60;;;;;;5075683;28;20061;-71
2023/06/20 01:49:43;;;;;;;19.98;15.10;;;22.10;72.50;;;;;;5075726;28;20036;-71
2023/06/20 01:52:15;;;;;;;26.05;17.30;;;22.10;72.70;;;;;;5075579;28;20032;-70
2023/06/20 01:54:46;;;;;;;22.98;17.17;;;22.10;72.90;;;;;;5075905;28;20103;-71
2023/06/20 01:57:13;;;;;;;20.30;16.13;;;22.10;73.20;;;;;;5075817;28;20114;-71
2023/06/20 01:59:42;;;;;;;19.40;15.38;;;22.00;73.10;;;;;;5075541;28;20052;-70
2023/06/20 02:02:10;;;;;;;17.15;14.23;;;22.00;72.80;;;;;;5058157;28;20029;-70
2023/06/20 02:04:37;;;;;;;17.88;13.05;;;21.90;72.80;;;;;;5075703;28;20059;-70
2023/06/20 02:07:04;;;;;;;17.70;13.35;;;21.90;72.80;;;;;;5075345;28;20040;-70
2023/06/20 02:09:31;;;;;;;16.90;13.50;;;21.90;72.70;;;;;;5075606;28;20378;-70
2023/06/20 02:11:59;;;;;;;18.25;13.07;;;22.00;72.60;;;;;;5075107;28;20021;-70
2023/06/20 02:14:26;;;;;;;17.20;13.48;;;22.00;72.60;;;;;;5074946;28;20028;-72
2023/06/20 02:16:54;;;;;;;16.20;13.27;;;22.00;72.50;;;;;;5075388;28;20041;-72
2023/06/20 02:19:20;;;;;;;16.60;13.50;;;22.00;72.40;;;;;;5075738;28;20028;-70
2023/06/20 02:21:47;;;;;;;13.85;11.95;;;22.00;72.40;;;;;;5075727;28;20020;-70
2023/06/20 02:24:19;;;;;;;15.88;12.50;;;22.00;72.30;;;;;;5075149;28;20075;-70
2023/06/20 02:26:47;;;;;;;14.57;11.98;;;21.90;72.30;;;;;;5075358;28;20052;-71
2023/06/20 02:29:15;;;;;;;14.05;10.93;;;21.90;72.40;;;;;;5075185;28;20040;-71
2023/06/20 02:31:45;;;;;;;14.82;12.18;;;21.90;72.30;;;;;;5075093;28;20063;-71
2023/06/20 02:34:14;;;;;;;15.63;12.32;;;21.90;72.40;;;;;;5075381;28;20024;-70
2023/06/20 02:36:43;;;;;;;14.63;11.45;;;21.90;72.50;;;;;;5057474;28;20044;-71
2023/06/20 02:39:09;;;;;;;14.13;11.13;;;21.90;72.50;;;;;;5075362;28;20085;-71
2023/06/20 02:41:35;;;;;;;12.05;10.10;;;21.90;72.50;;;;;;5075478;28;20448;-71
2023/06/20 02:44:01;;;;;;;14.90;11.70;;;21.90;72.40;;;;;;5078602;28;20028;-70
2023/06/20 02:47:01;;;;;;;14.23;11.00;;;21.90;72.40;;;;;;5078914;28;20342;-70
2023/06/20 02:49:55;;;;;;;15.30;11.48;;;21.80;72.60;;;;;;5078491;28;20083;-70
2023/06/20 02:52:21;;;;;;;;;;;21.90;72.40;;;;;;5075618;28;20033;-71
2023/06/20 02:55:12;;;;;;;14.45;11.52;;;21.80;73.10;;;;;;5074848;28;19940;-71
2023/06/20 02:57:46;;;;;;;16.95;13.15;;;21.80;72.30;;;;;;5074891;28;20021;-70
2023/06/20 03:00:13;;;;;;;15.35;11.82;;;21.80;72.30;;;;;;5075147;28;20041;-71
2023/06/20 03:03:13;;;;;;;15.57;12.00;;;21.90;72.10;;;;;;5074807;28;20021;-70
2023/06/20 03:05:42;;;;;;;16.23;11.07;;;21.80;72.10;;;;;;5074765;28;20442;-70
2023/06/20 03:08:09;;;;;;;15.00;11.15;;;21.80;72.00;;;;;;5074655;28;20060;-70
2023/06/20 03:10:36;;;;;;;15.43;11.73;;;21.80;72.00;;;;;;5075104;28;20513;-70
2023/06/20 03:13:06;;;;;;;14.15;11.50;;;21.80;72.10;;;;;;5074990;28;20023;-70
2023/06/20 03:15:32;;;;;;;17.45;11.27;;;21.80;72.10;;;;;;5074699;28;20028;-71
2023/06/20 03:18:01;;;;;;;15.68;11.32;;;21.70;72.20;;;;;;5074495;28;20020;-71
2023/06/20 03:20:28;;;;;;;15.93;11.27;;;21.70;72.20;;;;;;5074848;28;20032;-71
2023/06/20 03:22:55;;;;;;;13.60;10.80;;;21.70;72.30;;;;;;5074865;28;20047;-71
2023/06/20 03:25:21;;;;;;;15.65;11.50;;;21.70;72.40;;;;;;5075971;28;20465;-70
2023/06/20 03:27:47;;;;;;;13.70;11.38;;;21.60;72.40;;;;;;5078432;28;20033;-70
2023/06/20 03:30:14;;;;;;;16.25;11.85;;;21.70;72.50;;;;;;5078773;28;20033;-70
2023/06/20 03:32:40;;;;;;;13.68;10.82;;;21.60;72.60;;;;;;5078614;28;20036;-70
2023/06/20 03:35:07;;;;;;;13.38;10.93;;;21.60;72.60;;;;;;5078555;28;20020;-70
2023/06/20 03:37:33;;;;;;;15.27;11.68;;;21.60;72.70;;;;;;5078679;28;20364;-71
2023/06/20 03:39:59;;;;;;;13.57;11.20;;;21.70;72.70;;;;;;5078191;28;20052;-70
2023/06/20 03:42:27;;;;;;;14.88;11.35;;;21.70;72.70;;;;;;5078443;28;20024;-70
2023/06/20 03:44:59;;;;;;;15.82;11.10;;;21.70;72.60;;;;;;5078625;28;20028;-70
2023/06/20 03:47:25;;;;;;;12.55;10.30;;;21.70;72.60;;;;;;5078209;28;20021;-70
2023/06/20 03:49:51;;;;;;;14.77;11.63;;;21.70;72.60;;;;;;5078239;28;20331;-70
2023/06/20 03:52:17;;;;;;;15.23;10.73;;;21.70;72.60;;;;;;5078407;28;20104;-70
2023/06/20 03:54:43;;;;;;;21.42;11.55;;;21.80;72.50;;;;;;5077884;28;20062;-70
2023/06/20 03:57:09;;;;;;;15.85;10.98;;;21.80;72.50;;;;;;5078006;28;20017;-71
2023/06/20 03:59:35;;;;;;;16.52;12.20;;;21.80;72.50;;;;;;5078089;28;20028;-70
2023/06/20 04:02:01;;;;;;;17.67;11.90;;;21.90;72.50;;;;;;5077757;28;20422;-71
2023/06/20 04:04:27;;;;;;;15.30;11.77;;;21.90;72.40;;;;;;5077766;28;20056;-70
2023/06/20 04:06:53;;;;;;;15.73;11.73;;;21.90;72.30;;;;;;5077613;28;20039;-70
2023/06/20 04:09:19;;;;;;;15.88;11.48;;;22.00;72.20;;;;;;5077706;28;20042;-70
2023/06/20 04:11:46;;;;;;;16.75;11.48;;;22.00;72.20;;;;;;5078051;28;20050;-70
2023/06/20 04:14:12;;;;;;;14.70;11.25;;;22.10;72.10;;;;;;5060629;28;20036;-70
2023/06/20 04:16:38;;;;;;;17.73;11.15;;;22.20;72.00;;;;;;5077432;28;20024;-71
2023/06/20 04:19:04;;;;;;;17.17;13.00;;;22.30;71.80;;;;;;5078004;28;20101;-70
2023/06/20 04:21:31;;;;;;;17.75;13.75;;;22.40;71.80;;;;;;5077478;28;20016;-70
2023/06/20 04:23:57;;;;;;;16.77;12.77;;;22.40;71.90;;;;;;5077416;28;20110;-70
2023/06/20 04:26:24;;;;;;;17.50;12.07;;;22.50;71.60;;;;;;5077264;28;20024;-70
2023/06/20 04:28:50;;;;;;;17.23;11.90;;;22.60;71.40;;;;;;5077318;28;20025;-70
2023/06/20 04:31:16;;;;;;;17.75;12.23;;;22.70;71.20;;;;;;5077462;28;20516;-71
2023/06/20 04:33:43;;;;;;;16.77;12.02;;;22.90;70.90;;;;;;5077462;28;20020;-71
2023/06/20 04:36:15;;;;;;;17.55;12.82;;;23.00;70.70;;;;;;5076496;28;20446;-71
2023/06/20 04:38:44;;;;;;;16.30;11.73;;;23.20;70.30;;;;;;5077657;28;20052;-71
2023/06/20 04:41:10;;;;;;;16.27;12.35;;;23.40;70.00;;;;;;5077323;28;20099;-71
2023/06/20 04:43:36;;;;;;;19.25;13.52;;;23.50;69.60;;;;;;5077066;28;20040;-71
2023/06/20 04:46:04;;;;;;;16.10;13.02;;;23.70;69.40;;;;;;5076936;28;20024;-71
2023/06/20 04:48:35;;;;;;;16.70;13.45;;;23.90;69.10;;;;;;5076913;28;20032;-71
2023/06/20 04:51:01;;;;;;;17.40;13.82;;;24.00;68.80;;;;;;5077144;28;20067;-71
2023/06/20 04:53:28;;;;;;;17.55;13.48;;;24.30;68.80;;;;;;5076892;28;20107;-71
2023/06/20 04:55:54;;;;;;;20.40;15.60;;;24.60;68.40;;;;;;5076724;28;20345;-71
2023/06/20 04:58:21;;;;;;;20.63;17.00;;;25.00;67.80;;;;;;5077308;28;20035;-71
2023/06/20 05:00:48;;;;;;;21.67;17.83;;;25.40;67.10;;;;;;5076952;28;20035;-71
2023/06/20 05:03:14;;;;;;;23.30;17.20;;;25.90;66.10;;;;;;5076593;28;20361;-71
2023/06/20 05:05:40;;;;;;;21.45;17.30;;;26.20;65.40;;;;;;5076834;28;20035;-71
2023/06/20 05:08:06;;;;;;;19.08;14.52;;;26.50;64.70;;;;;;5076517;28;20028;-71
2023/06/20 05:10:32;;;;;;;19.88;15.55;;;26.90;63.80;;;;;;5058758;28;20434;-71
2023/06/20 05:12:58;;;;;;;21.33;16.50;;;27.20;63.10;;;;;;5058796;28;20029;-71
2023/06/20 05:15:24;;;;;;;21.48;16.88;;;27.60;62.30;;;;;;5076838;28;20047;-71
2023/06/20 05:17:51;;;;;;;21.58;17.23;;;27.90;61.40;;;;;;5076278;28;20372;-71
2023/06/20 05:20:18;;;;;;;22.85;17.45;;;28.30;60.60;;;;;;5076276;28;20028;-71
2023/06/20 05:22:44;;;;;;;22.92;17.80;;;28.70;59.70;;;;;;5059002;28;20024;-71
2023/06/20 05:25:10;;;;;;;24.55;17.25;;;29.00;58.60;;;;;;5076023;28;20036;-71
2023/06/20 05:27:37;;;;;;;17.70;13.88;;;29.30;57.70;;;;;;5076181;28;20035;-73
2023/06/20 05:30:04;;;;;;;20.08;15.02;;;29.60;57.50;;;;;;5075991;28;20062;-68
2023/06/20 05:32:30;;;;;;;20.60;16.95;;;30.10;56.60;;;;;;5075954;28;20024;-70
2023/06/20 05:34:56;;;;;;;18.42;14.60;;;30.50;55.40;;;;;;5076253;28;20013;-68
2023/06/20 05:37:22;;;;;;;23.15;18.00;;;31.00;54.50;;;;;;5076064;28;20025;-75
2023/06/20 05:39:48;;;;;;;22.40;16.20;;;31.40;53.60;;;;;;5076462;28;20334;-76
2023/06/20 05:42:16;;;;;;;23.05;17.83;;;31.80;53.00;;;;;;5076164;28;20039;-73
2023/06/20 05:44:43;;;;;;;26.35;20.02;;;32.10;52.10;;;;;;5075959;28;20063;-73
2023/06/20 05:47:17;;;;;;;20.67;17.50;;;32.30;50.80;;;;;;5075133;28;20082;-72
2023/06/20 05:49:49;;;;;;;22.13;17.40;;;32.20;51.30;;;;;;5058039;28;20094;-69
2023/06/20 05:52:15;;;;;;;25.17;20.97;;;32.40;51.30;;;;;;5058131;28;20074;-72
2023/06/20 05:54:43;;;;;;;32.30;21.60;;;32.50;51.00;;;;;;5075709;28;20074;-72
2023/06/20 05:57:09;;;;;;;23.35;19.45;;;32.60;50.90;;;;;;5075829;28;20095;-72
2023/06/20 05:59:35;;;;;;;22.88;17.60;;;32.90;50.80;;;;;;5075562;28;20107;-72
2023/06/20 06:02:01;;;;;;;22.98;17.88;;;33.00;50.80;;;;;;5075618;28;20028;-72
2023/06/20 06:04:27;;;;;;;25.73;20.98;;;33.50;50.30;;;;;;5075753;28;20032;-72
2023/06/20 06:06:53;;;;;;;26.83;21.88;;;34.00;49.60;;;;;;5075688;28;20315;-72
2023/06/20 06:09:20;;;;;;;26.98;20.05;;;34.40;48.80;;;;;;5075487;28;20033;-72
2023/06/20 06:11:46;;;;;;;27.50;21.27;;;34.90;48.20;;;;;;5075270;28;20428;-66
2023/06/20 06:14:14;;;;;;;28.42;20.33;;;34.90;47.10;;;;;;5075426;28;20303;-67
2023/06/20 06:16:40;;;;;;;24.92;20.33;;;34.50;47.60;;;;;;5075610;28;20024;-66
2023/06/20 06:19:06;;;;;;;22.17;17.42;;;34.70;47.80;;;;;;5075341;28;20472;-67
2023/06/20 06:21:32;;;;;;;26.63;20.02;;;35.00;47.40;;;;;;5075543;28;20044;-67
2023/06/20 06:23:58;;;;;;;24.38;18.50;;;35.60;46.50;;;;;;5075229;28;20453;-67
2023/06/20 06:26:24;;;;;;;26.58;20.98;;;36.00;45.80;;;;;;5075106;28;20032;-67
2023/06/20 06:28:50;;;;;;;29.50;23.75;;;36.30;45.10;;;;;;5075163;28;20075;-67
2023/06/20 06:31:25;;;;;;;32.72;25.05;;;36.30;44.70;;;;;;5075004;28;20070;-67
2023/06/20 06:33:54;;;;;;;27.45;20.73;;;36.10;44.30;;;;;;5075393;28;20086;-67
2023/06/20 06:36:21;;;;;;;30.27;22.58;;;36.40;44.20;;;;;;5075293;28;20032;-71
2023/06/20 06:38:49;;;;;;;21.13;16.52;;;36.30;44.20;;;;;;5075328;28;20103;-67
2023/06/20 06:41:18;;;;;;;23.88;18.08;;;36.00;44.50;;;;;;5075327;28;20059;-69
2023/06/20 06:43:47;;;;;;;35.92;26.92;;;35.50;45.30;;;;;;5075304;28;20056;-68
2023/06/20 06:46:16;;;;;;;26.77;20.23;;;35.00;46.50;;;;;;5074991;28;20468;-69
2023/06/20 06:48:42;;;;;;;27.65;20.88;;;34.20;47.90;;;;;;5075051;28;20447;-68
2023/06/20 06:51:08;;;;;;;29.02;22.05;;;33.50;49.30;;;;;;5074868;28;20024;-68
2023/06/20 06:53:34;;;;;;;29.52;21.92;;;32.90;50.50;;;;;;5074983;28;20036;-68
2023/06/20 06:55:59;;;;;;;27.08;21.08;;;32.70;51.30;;;;;;5074876;28;20017;-68
2023/06/20 06:58:25;;;;;;;25.55;19.23;;;32.30;52.10;;;;;;5075491;28;20167;-68
2023/06/20 07:00:52;;;;;;;31.60;25.05;;;32.20;52.60;;;;;;5079313;28;20141;-68
2023/06/20 07:03:17;;;;;;;28.20;22.92;;;31.70;53.30;;;;;;5079541;28;20060;-68
2023/06/20 07:05:43;;;;;;;26.13;21.15;;;31.50;53.80;;;;;;5079467;28;20552;-68
2023/06/20 07:08:10;;;;;;;31.65;22.50;;;31.40;54.00;;;;;;5078818;28;20024;-68
2023/06/20 07:10:36;;;;;;;32.88;25.10;;;31.30;54.60;;;;;;5079268;28;20025;-68
2023/06/20 07:13:05;;;;;;;28.80;20.33;;;31.10;54.80;;;;;;5078820;28;20433;-69
2023/06/20 07:15:32;;;;;;;33.80;24.50;;;31.00;55.10;;;;;;5061116;28;20023;-69
2023/06/20 07:17:58;;;;;;;20.80;15.95;;;31.10;55.30;;;;;;5079213;28;20040;-69
2023/06/20 07:20:24;;;;;;;25.77;20.58;;;31.20;55.20;;;;;;5078665;28;20021;-69
2023/06/20 07:22:50;;;;;;;24.98;17.95;;;31.40;55.10;;;;;;5060955;28;20040;-69
2023/06/20 07:25:18;;;;;;;29.17;20.27;;;31.50;54.40;;;;;;5078492;28;20062;-68
2023/06/20 07:27:44;;;;;;;26.73;21.10;;;31.50;54.70;;;;;;5078720;28;20064;-69
2023/06/20 07:30:10;;;;;;;29.90;22.02;;;31.40;54.70;;;;;;5078884;28;20020;-69
2023/06/20 07:32:36;;;;;;;31.33;24.70;;;31.40;54.90;;;;;;5078400;28;20032;-69
2023/06/20 07:35:02;;;;;;;29.77;23.92;;;31.40;54.30;;;;;;5078563;28;20021;-72
2023/06/20 07:37:28;;;;;;;22.05;16.50;;;31.40;54.50;;;;;;5078437;28;20032;-73
2023/06/20 07:39:54;;;;;;;23.25;17.77;;;31.50;54.40;;;;;;5078572;28;20020;-73
2023/06/20 07:42:20;;;;;;;20.23;15.20;;;31.60;54.20;;;;;;5078490;28;20086;-73
2023/06/20 07:44:46;;;;;;;26.30;18.95;;;31.60;54.00;;;;;;5078199;28;20025;-73
2023/06/20 07:47:13;;;;;;;24.00;18.05;;;31.70;54.10;;;;;;5078155;28;20380;-73
2023/06/20 07:49:39;;;;;;;25.77;20.60;;;31.80;53.80;;;;;;5078053;28;20032;-73
2023/06/20 07:52:05;;;;;;;22.50;15.85;;;31.90;53.40;;;;;;5078276;28;20098;-73
2023/06/20 07:54:31;;;;;;;23.10;16.30;;;31.80;53.40;;;;;;5078042;28;20031;-73
2023/06/20 07:56:58;;;;;;;19.70;15.20;;;31.80;53.40;;;;;;5078449;28;20036;-73
2023/06/20 07:59:24;;;;;;;17.33;13.40;;;31.70;53.40;;;;;;5078181;28;20433;-73
2023/06/20 08:01:49;;;;;;;24.75;18.85;;;31.70;53.40;;;;;;5060228;28;20466;-72
2023/06/20 08:04:15;;;;;;;21.52;16.60;;;31.80;53.10;;;;;;5078173;28;20055;-73
2023/06/20 08:06:41;;;;;;;21.00;15.25;;;31.80;52.90;;;;;;5077774;28;20036;-73
2023/06/20 08:09:07;;;;;;;18.58;14.52;;;31.60;53.00;;;;;;5077753;28;20048;-73
2023/06/20 08:11:34;;;;;;;19.20;14.00;;;31.50;53.20;;;;;;5077016;28;20139;-73
2023/06/20 08:14:00;;;;;;;20.80;15.25;;;31.60;53.20;;;;;;5077670;28;20475;-72
2023/06/20 08:16:26;;;;;;;22.33;15.38;;;31.70;53.20;;;;;;5077599;28;20505;-73
2023/06/20 08:18:52;;;;;;;15.95;12.55;;;31.80;52.90;;;;;;5078117;28;20051;-73
2023/06/20 08:21:18;;;;;;;22.85;17.92;;;31.90;52.60;;;;;;5077504;28;20381;-73
2023/06/20 08:23:45;;;;;;;17.05;13.82;;;32.00;52.30;;;;;;5077305;28;20036;-73
2023/06/20 08:26:11;;;;;;;16.02;12.35;;;31.90;52.20;;;;;;5077339;28;20036;-73
2023/06/20 08:28:37;;;;;;;20.02;15.57;;;31.90;52.20;;;;;;5077409;28;20021;-73
2023/06/20 08:31:04;;;;;;;20.33;14.93;;;31.90;52.40;;;;;;5070911;28;20035;-73
2023/06/20 08:33:30;;;;;;;15.60;11.90;;;31.90;52.30;;;;;;5077048;28;20032;-73
2023/06/20 08:35:56;;;;;;;19.58;14.35;;;31.90;52.30;;;;;;5077053;28;20346;-73
2023/06/20 08:38:22;;;;;;;16.17;12.77;;;32.10;52.10;;;;;;5077484;28;20031;-68
2023/06/20 08:40:48;;;;;;;18.50;13.82;;;32.10;52.10;;;;;;5077614;28;20028;-68
2023/06/20 08:43:17;;;;;;;19.95;15.77;;;32.20;52.00;;;;;;5077336;28;20021;-68
2023/06/20 08:45:44;;;;;;;20.58;16.20;;;32.10;51.80;;;;;;5077071;28;20036;-68
2023/06/20 08:48:10;;;;;;;17.67;13.82;;;32.20;51.60;;;;;;5076955;28;20032;-68
2023/06/20 08:50:37;;;;;;;19.77;15.63;;;32.20;51.70;;;;;;5076977;28;20032;-68
2023/06/20 08:53:06;;;;;;;18.20;14.18;;;32.40;51.50;;;;;;5077011;28;20025;-68
2023/06/20 08:55:34;;;;;;;22.00;17.27;;;32.40;51.40;;;;;;5077502;28;20074;-69
2023/06/20 08:58:00;;;;;;;23.60;17.33;;;32.40;51.20;;;;;;5042859;28;20023;-68
2023/06/20 09:00:27;;;;;;;20.02;15.75;;;32.30;51.30;;;;;;5076853;28;20020;-69
2023/06/20 09:02:54;;;;;;;16.58;13.80;;;32.20;51.70;;;;;;5076825;28;20028;-68
2023/06/20 09:05:21;;;;;;;18.52;14.63;;;32.10;51.90;;;;;;5076669;28;20016;-68
2023/06/20 09:07:52;;;;;;;15.63;12.43;;;32.10;52.10;;;;;;5076608;28;20522;-69
2023/06/20 09:10:23;;;;;;;15.13;12.13;;;32.20;52.20;;;;;;5076552;28;20099;-68
2023/06/20 09:12:53;;;;;;;16.90;14.13;;;32.20;52.20;;;;;;5076801;28;20115;-68
2023/06/20 09:15:22;;;;;;;17.50;14.10;;;32.30;51.90;;;;;;5077059;28;20024;-68
2023/06/20 09:17:59;;;;;;;16.05;12.80;;;32.20;51.90;;;;;;5076442;28;20040;-70
2023/06/20 09:20:28;;;;;;;14.90;12.25;;;32.10;52.20;;;;;;5059562;28;20058;-68
2023/06/20 09:22:54;;;;;;;14.48;11.93;;;32.20;52.30;;;;;;5059022;28;20442;-68
2023/06/20 09:25:22;;;;;;;16.27;13.05;;;32.10;52.30;;;;;;5076219;28;20044;-68
2023/06/20 09:27:50;;;;;;;14.43;11.82;;;32.20;52.40;;;;;;5042233;28;20028;-68
2023/06/20 09:30:16;;;;;;;18.27;14.55;;;32.20;52.60;;;;;;5076105;28;20032;-69
2023/06/20 09:32:42;;;;;;;17.67;13.98;;;32.40;52.20;;;;;;5076185;28;20421;-69
2023/06/20 09:35:14;;;;;;;19.00;16.30;;;32.40;52.10;;;;;;5076385;28;20438;-68
2023/06/20 09:37:49;;;;;;;20.95;14.70;;;32.40;52.10;;;;;;5076560;28;20438;-68
2023/06/20 09:40:20;;;;;;;18.20;14.32;;;32.30;52.10;;;;;;5076341;28;20021;-68
2023/06/20 09:42:47;;;;;;;16.73;12.73;;;32.20;52.10;;;;;;5076294;28;20021;-69
2023/06/20 09:45:17;;;;;;;18.30;13.45;;;32.30;52.30;;;;;;5076171;28;20031;-68
2023/06/20 09:47:44;;;;;;;18.25;14.35;;;32.30;51.90;;;;;;5075854;28;20028;-68
2023/06/20 09:50:19;;;;;;;15.63;12.40;;;32.20;51.40;;;;;;5075812;28;20013;-68
2023/06/20 09:53:09;;;;;;;15.85;12.38;;;32.10;51.30;;;;;;5075749;28;20314;-68
2023/06/20 09:55:36;;;;;;;15.13;11.38;;;32.00;51.00;;;;;;5075746;28;20027;-68
2023/06/20 09:58:07;;;;;;;13.82;10.77;;;32.10;51.50;;;;;;5075697;28;20020;-68
2023/06/20 10:00:35;;;;;;;15.80;11.23;;;32.20;51.50;;;;;;5075912;28;20043;-68
2023/06/20 10:03:10;;;;;;;12.80;10.88;;;32.20;51.40;;;;;;5075640;28;20050;-69
2023/06/20 10:05:36;;;;;;;17.38;13.18;;;32.30;51.50;;;;;;5076127;28;20028;-68
2023/06/20 10:08:03;;;;;;;17.92;13.35;;;32.40;51.50;;;;;;5075728;28;20029;-68
2023/06/20 10:10:29;;;;;;;17.30;13.63;;;32.60;51.10;;;;;;5075652;28;20433;-68
2023/06/20 10:12:56;;;;;;;18.88;15.20;;;32.50;50.90;;;;;;5057973;28;20035;-68
2023/06/20 10:15:23;;;;;;;14.90;12.10;;;32.40;51.00;;;;;;5057820;28;20115;-68
2023/06/20 10:17:49;;;;;;;18.75;14.48;;;32.40;51.10;;;;;;5075426;28;20092;-68
2023/06/20 10:20:27;;;;;;;20.80;15.38;;;32.30;51.20;;;;;;5075638;28;20070;-68
2023/06/20 10:23:03;;;;;;;19.10;14.90;;;32.20;51.50;;;;;;5075377;28;20375;-68
2023/06/20 10:25:29;;;;;;;16.90;13.07;;;32.30;51.50;;;;;;5093041;28;20074;-68
2023/06/20 10:28:03;;;;;;;15.48;11.52;;;32.40;51.50;;;;;;5095537;28;20024;-68
2023/06/20 10:30:50;;;;;;;21.23;16.52;;;32.60;51.40;;;;;;5095757;28;20024;-68
2023/06/20 10:33:33;;;;;;;19.58;16.45;;;32.60;50.20;;;;;;5095297;28;20456;-68
2023/06/20 10:36:02;;;;;;;;;;;32.50;50.50;;;;;;5096404;28;20166;-68
2023/06/20 10:38:29;;;;;;;21.35;17.35;;;32.40;49.90;;;;;;5095376;28;19904;-68
2023/06/20 10:41:06;;;;;;;21.23;17.70;;;32.30;51.00;;;;;;5095337;28;20032;-68
2023/06/20 10:43:47;;;;;;;17.05;13.68;;;32.10;50.50;;;;;;5095318;28;20032;-68
2023/06/20 10:46:14;;;;;;;13.55;11.35;;;32.00;51.40;;;;;;5095754;28;20028;-69
2023/06/20 10:48:39;;;;;;;15.77;12.13;;;32.10;51.80;;;;;;5094699;28;20028;-73
2023/06/20 10:51:06;;;;;;;16.75;14.05;;;32.30;51.80;;;;;;5095183;28;20028;-72
2023/06/20 10:53:32;;;;;;;16.60;12.57;;;32.30;51.40;;;;;;5094255;28;20035;-74
2023/06/20 10:56:00;;;;;;;18.27;13.70;;;32.20;51.30;;;;;;5095153;28;20046;-72
2023/06/20 10:58:26;;;;;;;22.85;18.02;;;32.20;51.50;;;;;;5095101;28;20061;-73
2023/06/20 11:00:54;;;;;;;20.52;16.27;;;32.20;51.20;;;;;;5095093;28;20076;-73
2023/06/20 11:03:23;;;;;;;18.95;16.10;;;32.00;51.50;;;;;;5094302;28;20445;-73
2023/06/20 11:05:54;;;;;;;21.85;18.08;;;32.00;51.90;;;;;;5095154;28;20077;-73
2023/06/20 11:08:26;;;;;;;15.85;13.55;;;31.90;51.70;;;;;;5095077;28;20043;-73
2023/06/20 11:10:55;;;;;;;20.75;16.83;;;31.90;51.60;;;;;;5095049;28;20469;-73
2023/06/20 11:13:24;;;;;;;18.10;14.40;;;31.90;51.90;;;;;;5094985;28;20047;-73
2023/06/20 11:15:53;;;;;;;15.35;12.60;;;31.90;51.90;;;;;;5095471;28;20020;-72
2023/06/20 11:18:21;;;;;;;13.25;11.20;;;32.00;51.90;;;;;;5095511;28;20533;-73
2023/06/20 11:20:48;;;;;;;14.93;12.75;;;32.10;51.80;;;;;;5094937;28;20024;-72
2023/06/20 11:23:14;;;;;;;15.77;12.07;;;32.20;51.60;;;;;;5095348;28;20039;-73
2023/06/20 11:25:43;;;;;;;14.70;11.43;;;32.30;51.60;;;;;;5075998;28;20044;-73
2023/06/20 11:28:10;;;;;;;15.10;12.23;;;32.40;51.50;;;;;;5074557;28;20045;-73
2023/06/20 11:30:56;;;;;;;16.23;12.90;;;32.50;51.30;;;;;;5074552;28;20020;-73
2023/06/20 11:33:28;;;;;;;14.18;11.60;;;32.50;51.10;;;;;;5075267;28;20138;-73
2023/06/20 11:35:57;;;;;;;12.05;10.10;;;32.60;51.50;;;;;;5056854;28;20457;-68
2023/06/20 11:38:28;;;;;;;14.60;10.85;;;32.80;51.40;;;;;;5074847;28;20528;-68
2023/06/20 11:41:03;;;;;;;13.13;10.77;;;32.90;51.30;;;;;;5074574;28;20033;-73
2023/06/20 11:43:41;;;;;;;21.08;16.55;;;33.10;50.70;;;;;;5074732;28;20402;-68
2023/06/20 11:46:11;;;;;;;16.85;14.05;;;33.10;49.50;;;;;;5075874;28;20020;-68
2023/06/20 11:48:46;;;;;;;17.98;14.50;;;33.10;50.30;;;;;;5078222;28;20028;-68
2023/06/20 11:51:13;;;;;;;20.70;16.83;;;33.00;50.30;;;;;;5078405;28;20036;-68
2023/06/20 11:53:39;;;;;;;17.88;15.68;;;32.80;50.40;;;;;;5078421;28;20059;-68
2023/06/20 11:56:11;;;;;;;19.60;15.45;;;32.60;50.90;;;;;;5078525;28;20040;-68
2023/06/20 11:58:40;;;;;;;20.48;15.23;;;32.60;50.90;;;;;;5078023;28;20457;-68
2023/06/20 12:01:14;;;;;;;14.60;11.63;;;32.60;51.00;;;;;;5077927;28;20052;-68
2023/06/20 12:03:41;;;;;;;14.00;11.90;;;32.60;50.90;;;;;;5078258;28;20059;-68
2023/06/20 12:06:30;;;;;;;14.27;12.02;;;32.60;50.90;;;;;;5077846;28;20078;-68
2023/06/20 12:08:57;;;;;;;13.98;10.75;;;32.60;50.80;;;;;;5077841;28;20028;-68
2023/06/20 12:11:24;;;;;;;15.20;12.35;;;32.60;50.90;;;;;;5077691;28;20043;-68
2023/06/20 12:13:52;;;;;;;14.57;11.77;;;32.60;50.80;;;;;;5078300;28;20036;-68
2023/06/20 12:16:22;;;;;;;11.73;9.82;;;32.60;50.70;;;;;;5078171;28;20016;-68
2023/06/20 12:18:48;;;;;;;11.35;9.68;;;32.70;50.80;;;;;;5077651;28;20081;-68
2023/06/20 12:21:15;;;;;;;12.60;10.45;;;32.80;50.80;;;;;;5077542;28;20048;-68
2023/06/20 12:23:41;;;;;;;14.27;11.80;;;33.00;50.90;;;;;;5077654;28;20423;-68
2023/06/20 12:26:07;;;;;;;21.42;13.93;;;33.10;49.90;;;;;;5077716;28;20116;-68
2023/06/20 12:28:34;;;;;;;15.75;12.60;;;33.20;49.20;;;;;;5077751;28;20028;-69
2023/06/20 12:31:00;;;;;;;16.27;12.55;;;33.20;49.10;;;;;;5077301;28;20407;-69
2023/06/20 12:33:26;;;;;;;13.23;10.95;;;33.00;49.00;;;;;;5077681;28;20020;-69
2023/06/20 12:35:52;;;;;;;13.48;10.95;;;33.00;49.30;;;;;;5077204;28;20025;-68